Time;durP1;ratioP1;P1;durP2;ratioP2;P2;SDS_P1;SDS_P2;PMS_P1;PMS_P2;Temp;Humidity;BMP_temperature;BMP_pressure;BME280_temperature;BME280_humidity;BME280_pressure;Samples;Min_cycle;Max_cycle;Signal;HPM_P1;HPM_P2
2023/03/12 00:02:16;;;;;;;1.90;1.10;;;;;;;-0.99;92.02;96840.84;105302;1260;73974;-24
2023/03/12 00:04:45;;;;;;;1.70;1.40;;;;;;;-1.15;91.36;96836.52;105309;1260;61061;-24
2023/03/12 00:07:13;;;;;;;2.10;1.60;;;;;;;-1.31;91.37;96840.82;105334;1260;61715;-24
2023/03/12 00:09:42;;;;;;;1.70;1.50;;;;;;;-1.54;91.79;96832.17;105241;1265;74664;-24
2023/03/12 00:12:12;;;;;;;3.40;1.60;;;;;;;-1.21;90.21;96833.45;105272;1265;74747;-24
2023/03/12 00:14:41;;;;;;;2.00;1.50;;;;;;;-1.23;89.95;96836.73;105384;1260;73964;-24
2023/03/12 00:17:09;;;;;;;1.30;1.20;;;;;;;-1.33;90.03;96841.11;105358;1260;61164;-24
2023/03/12 00:19:38;;;;;;;3.00;1.90;;;;;;;-1.41;90.85;96861.10;105274;1260;61859;-24
2023/03/12 00:22:06;;;;;;;1.80;1.40;;;;;;;-1.55;91.02;96854.35;105300;1260;75247;-24
2023/03/12 00:24:38;;;;;;;2.20;1.80;;;;;;;-1.41;90.18;96852.74;105291;1267;75815;-24
2023/03/12 00:27:06;;;;;;;1.70;1.50;;;;;;;-1.46;90.50;96874.81;105120;1259;74239;-24
2023/03/12 00:29:35;;;;;;;2.10;1.40;;;;;;;-1.46;91.29;96895.13;105124;1261;61172;-24
2023/03/12 00:32:05;;;;;;;2.10;1.30;;;;;;;-1.49;91.58;96869.41;105165;1265;62030;-24
2023/03/12 00:34:34;;;;;;;1.60;1.30;;;;;;;-1.09;90.04;96891.94;105120;1259;74162;-24
2023/03/12 00:37:02;;;;;;;2.10;1.70;;;;;;;-1.19;88.47;96867.05;105270;1260;75543;-24
2023/03/12 00:39:31;;;;;;;2.40;2.00;;;;;;;-1.34;89.46;96890.92;105261;1261;74009;-24
2023/03/12 00:42:00;;;;;;;1.60;1.40;;;;;;;-1.60;91.29;96901.28;105161;1260;61097;-24
2023/03/12 00:44:29;;;;;;;2.30;1.30;;;;;;;-1.42;91.73;96902.96;105054;1268;61183;-24
2023/03/12 00:46:57;;;;;;;2.00;1.30;;;;;;;-1.09;90.76;96913.73;105341;1260;74681;-24
2023/03/12 00:49:26;;;;;;;1.90;1.60;;;;;;;-1.15;90.19;96913.45;105280;1259;74894;-24
2023/03/12 00:51:54;;;;;;;1.90;1.30;;;;;;;-1.45;91.12;96903.73;104995;1260;74509;-24
2023/03/12 00:54:23;;;;;;;2.00;1.70;;;;;;;-1.46;91.83;96906.67;105053;1260;61128;-24
2023/03/12 00:56:52;;;;;;;1.80;1.50;;;;;;;-1.46;91.54;96886.40;105146;1265;61692;-24
2023/03/12 00:59:20;;;;;;;1.60;1.20;;;;;;;-1.24;90.36;96906.55;105307;1260;74574;-24
2023/03/12 01:01:49;;;;;;;1.90;1.50;;;;;;;-1.30;89.70;96911.77;105258;1260;76032;-24
2023/03/12 01:04:18;;;;;;;1.60;1.10;;;;;;;-1.52;90.63;96909.10;105187;1260;74338;-24
2023/03/12 01:06:48;;;;;;;1.40;1.20;;;;;;;-1.56;91.11;96925.87;105155;1260;62584;-24
2023/03/12 01:09:17;;;;;;;1.40;1.30;;;;;;;-1.38;90.75;96921.66;105232;1263;61617;-24
2023/03/12 01:11:46;;;;;;;2.00;1.60;;;;;;;-1.32;90.02;96923.60;105042;1263;74432;-24
2023/03/12 01:14:14;;;;;;;2.50;1.30;;;;;;;-1.43;90.29;96914.81;105540;1257;75948;-24
2023/03/12 01:16:43;;;;;;;1.50;1.20;;;;;;;-1.57;90.08;96917.06;105366;1260;73841;-24
2023/03/12 01:19:12;;;;;;;1.40;1.20;;;;;;;-1.67;90.90;96914.83;105386;1262;63131;-24
2023/03/12 01:21:41;;;;;;;1.90;1.30;;;;;;;-1.52;90.28;96918.10;105595;1260;61250;-25
2023/03/12 01:24:10;;;;;;;2.20;1.70;;;;;;;-1.67;90.37;96911.30;105583;1259;74554;-24
2023/03/12 01:26:38;;;;;;;4.40;1.30;;;;;;;-1.70;91.68;96939.73;105597;1257;75988;-24
2023/03/12 01:29:07;;;;;;;2.30;1.30;;;;;;;-1.69;92.24;96948.13;105404;1257;74139;-24
2023/03/12 01:31:35;;;;;;;1.60;1.40;;;;;;;-1.40;91.26;96949.37;105429;1262;61115;-24
2023/03/12 01:34:04;;;;;;;1.30;1.00;;;;;;;-1.48;91.40;96961.94;105458;1260;61728;-24
2023/03/12 01:36:33;;;;;;;1.10;1.00;;;;;;;-1.68;91.61;96957.09;105326;1257;74277;-24
2023/03/12 01:39:02;;;;;;;1.20;1.10;;;;;;;-1.80;92.21;96945.95;105386;1260;75967;-24
2023/03/12 01:41:33;;;;;;;1.20;1.00;;;;;;;-1.47;91.51;96956.27;105546;1256;73170;-24
2023/03/12 01:44:03;;;;;;;1.60;1.20;;;;;;;-1.49;91.14;96965.55;105591;1256;61025;-24
2023/03/12 01:46:42;;;;;;;1.30;1.20;;;;;;;-1.58;91.08;96970.27;105378;1261;61319;-24
2023/03/12 01:49:22;;;;;;;1.30;1.10;;;;;;;-1.84;91.90;96969.88;105477;1257;74557;-24
2023/03/12 01:51:57;;;;;;;1.50;1.20;;;;;;;-1.69;91.85;96973.02;105536;1262;75859;-24
2023/03/12 01:54:34;;;;;;;1.50;1.30;;;;;;;-1.49;91.42;96997.61;105311;1257;74224;-24
2023/03/12 01:57:04;;;;;;;1.70;1.10;;;;;;;-1.51;91.04;97005.19;105456;1262;61186;-25
2023/03/12 01:59:58;;;;;;;1.20;1.10;;;;;;;-1.84;92.34;97004.60;105546;1258;61600;-24
2023/03/12 02:02:28;;;;;;;2.50;0.90;;;;;;;-1.60;91.60;97003.88;105452;1264;74525;-24
2023/03/12 02:05:34;;;;;;;3.60;1.40;;;;;;;-1.57;91.43;97004.05;105674;1260;76175;-24
2023/03/12 02:08:03;;;;;;;1.40;1.20;;;;;;;-1.61;91.69;97007.35;105480;1258;74402;-24
2023/03/12 02:10:33;;;;;;;2.30;1.80;;;;;;;-1.91;92.39;97006.20;105446;1257;62501;-24
2023/03/12 02:13:03;;;;;;;1.40;1.10;;;;;;;-1.61;92.17;97027.94;105511;1257;61182;-24
2023/03/12 02:15:32;;;;;;;1.10;0.90;;;;;;;-1.48;91.12;97030.52;105559;1257;74579;-24
2023/03/12 02:18:02;;;;;;;1.70;0.90;;;;;;;-1.77;91.19;97029.98;105526;1257;75844;-25
2023/03/12 02:20:55;;;;;;;1.60;1.10;;;;;;;-1.89;92.14;97038.91;105378;1261;74203;-24
2023/03/12 02:23:50;;;;;;;2.00;1.30;;;;;;;-1.86;92.60;97040.24;105396;1262;61195;-24
2023/03/12 02:26:18;;;;;;;1.20;0.90;;;;;;;-1.66;90.93;97053.61;105324;1261;61809;-25
2023/03/12 02:28:48;;;;;;;0.90;0.70;;;;;;;-1.87;91.54;97053.60;105306;1257;74406;-24
2023/03/12 02:31:20;;;;;;;1.00;0.80;;;;;;;-2.08;91.70;97037.54;105566;1262;75590;-24
2023/03/12 02:33:50;;;;;;;2.30;1.10;;;;;;;-2.13;92.27;97046.34;105425;1261;74088;-25
2023/03/12 02:36:19;;;;;;;1.40;0.80;;;;;;;-2.05;91.67;97051.80;105657;1256;61029;-25
2023/03/12 02:38:49;;;;;;;2.10;1.10;;;;;;;-2.06;91.64;97081.27;105674;1257;61503;-25
2023/03/12 02:41:31;;;;;;;1.00;0.70;;;;;;;-2.30;92.88;97082.92;105211;1263;75368;-24
2023/03/12 02:44:10;;;;;;;0.80;0.80;;;;;;;-2.26;93.09;97075.88;105314;1257;75576;-24
2023/03/12 02:46:47;;;;;;;1.10;1.00;;;;;;;-2.12;92.16;97089.65;105534;1260;74204;-25
2023/03/12 02:49:19;;;;;;;1.30;1.00;;;;;;;-2.14;91.39;97099.80;105397;1257;61319;-25
2023/03/12 02:51:49;;;;;;;1.30;1.20;;;;;;;-2.39;91.84;97100.06;105608;1261;62570;-25
2023/03/12 02:54:18;;;;;;;1.20;0.80;;;;;;;-2.45;91.68;97100.47;105580;1261;75342;-25
2023/03/12 02:56:47;;;;;;;1.50;0.90;;;;;;;-2.40;90.89;97109.33;105360;1263;74889;-25
2023/03/12 02:59:15;;;;;;;2.70;0.60;;;;;;;-2.50;90.87;97128.61;105258;1262;73163;-25
2023/03/12 03:01:44;;;;;;;0.90;0.70;;;;;;;-2.59;91.15;97125.73;105469;1261;61285;-25
2023/03/12 03:04:13;;;;;;;0.80;0.70;;;;;;;-2.60;90.56;97128.16;105407;1260;61596;-25
2023/03/12 03:06:42;;;;;;;0.80;0.80;;;;;;;-2.35;88.58;97126.69;105443;1261;75480;-25
2023/03/12 03:09:11;;;;;;;1.10;0.80;;;;;;;-2.40;88.04;97143.81;105593;1263;76079;-24
2023/03/12 03:11:40;;;;;;;1.60;0.80;;;;;;;-2.42;87.98;97132.55;105625;1260;74367;-25
2023/03/12 03:14:09;;;;;;;1.90;0.90;;;;;;;-2.55;88.13;97148.97;105403;1262;61306;-25
2023/03/12 03:16:38;;;;;;;2.40;0.70;;;;;;;-2.34;87.52;97168.62;105653;1259;61900;-25
2023/03/12 03:19:07;;;;;;;1.10;0.90;;;;;;;-2.17;85.95;97163.04;105680;1260;75361;-25
2023/03/12 03:21:36;;;;;;;0.90;0.80;;;;;;;-2.39;86.37;97167.38;105620;1263;75996;-24
2023/03/12 03:24:05;;;;;;;1.70;0.90;;;;;;;-2.48;86.85;97174.05;105613;1260;74368;-25
2023/03/12 03:26:34;;;;;;;1.90;1.40;;;;;;;-2.40;86.44;97179.65;105560;1260;61163;-25
2023/03/12 03:29:03;;;;;;;1.50;0.90;;;;;;;-2.14;84.66;97176.49;105382;1261;61684;-25
2023/03/12 03:31:33;;;;;;;0.90;0.80;;;;;;;-2.18;84.01;97197.29;105384;1257;76475;-25
2023/03/12 03:34:02;;;;;;;2.50;1.30;;;;;;;-2.45;84.82;97211.40;105390;1260;75386;-25
2023/03/12 03:36:30;;;;;;;3.00;1.00;;;;;;;-2.37;85.23;97217.56;105572;1259;74103;-25
2023/03/12 03:39:06;;;;;;;2.50;0.80;;;;;;;-2.19;84.75;97222.16;105502;1259;61124;-25
2023/03/12 03:41:36;;;;;;;2.20;1.40;;;;;;;-2.15;83.70;97204.44;105334;1266;61620;-25
2023/03/12 03:44:06;;;;;;;1.80;1.00;;;;;;;-2.10;83.57;97232.02;105219;1257;75373;-25
2023/03/12 03:46:36;;;;;;;1.50;1.00;;;;;;;-2.33;83.59;97216.16;105633;1259;75843;-25
2023/03/12 03:49:07;;;;;;;1.00;0.80;;;;;;;-2.49;84.30;97230.87;105503;1262;72550;-25
2023/03/12 03:51:36;;;;;;;0.80;0.80;;;;;;;-2.16;83.38;97233.54;105609;1259;61103;-25
2023/03/12 03:54:09;;;;;;;2.90;0.80;;;;;;;-2.08;83.07;97250.10;105424;1260;61528;-25
2023/03/12 03:56:39;;;;;;;0.70;0.60;;;;;;;-2.02;83.10;97251.77;105634;1260;75293;-25
2023/03/12 03:59:12;;;;;;;0.90;0.70;;;;;;;-2.22;83.86;97249.02;105271;1264;76016;-25
2023/03/12 04:01:41;;;;;;;1.00;0.60;;;;;;;-2.31;85.15;97244.27;105350;1259;73964;-25
2023/03/12 04:04:10;;;;;;;1.30;1.00;;;;;;;-2.01;85.15;97259.92;105623;1261;61154;-26
2023/03/12 04:06:44;;;;;;;1.50;0.90;;;;;;;-1.91;84.37;97272.38;105237;1260;61852;-25
2023/03/12 04:09:14;;;;;;;2.20;1.00;;;;;;;-2.01;85.03;97282.52;105309;1260;74396;-25
2023/03/12 04:11:44;;;;;;;2.30;1.30;;;;;;;-2.14;85.84;97288.38;105309;1260;73909;-25
2023/03/12 04:14:13;;;;;;;2.10;0.90;;;;;;;-2.26;86.49;97296.69;105244;1262;74206;-25
2023/03/12 04:16:46;;;;;;;4.70;0.80;;;;;;;-2.07;85.32;97287.95;105485;1259;61056;-26
2023/03/12 04:19:15;;;;;;;1.30;0.80;;;;;;;-1.87;83.61;97289.84;105400;1260;61052;-25
2023/03/12 04:21:43;;;;;;;1.30;0.90;;;;;;;-1.96;84.05;97312.14;105361;1257;74334;-25
2023/03/12 04:24:14;;;;;;;1.40;0.90;;;;;;;-1.99;84.35;97316.56;105269;1263;75642;-25
2023/03/12 04:26:43;;;;;;;1.60;1.30;;;;;;;-2.17;85.93;97324.59;105169;1261;74512;-25
2023/03/12 04:29:11;;;;;;;1.20;0.80;;;;;;;-1.92;86.34;97311.05;105516;1260;61198;-26
2023/03/12 04:31:40;;;;;;;1.20;0.80;;;;;;;-1.77;85.27;97318.20;105617;1260;61839;-25
2023/03/12 04:34:09;;;;;;;1.90;1.00;;;;;;;-1.79;84.43;97326.30;105385;1261;75136;-25
2023/03/12 04:36:42;;;;;;;1.40;0.90;;;;;;;-2.05;85.22;97346.86;105579;1262;75862;-25
2023/03/12 04:39:11;;;;;;;3.30;1.10;;;;;;;-2.24;85.34;97349.28;105662;1262;74018;-25
2023/03/12 04:41:43;;;;;;;1.10;0.70;;;;;;;-2.29;85.44;97341.02;105552;1263;61053;-26
2023/03/12 04:44:14;;;;;;;2.00;1.00;;;;;;;-2.08;83.43;97346.67;105652;1270;61111;-26
2023/03/12 04:46:43;;;;;;;0.80;0.70;;;;;;;-2.00;81.51;97349.46;105621;1257;75325;-25
2023/03/12 04:49:14;;;;;;;1.60;0.90;;;;;;;-2.10;81.38;97363.09;105497;1261;75777;-25
2023/03/12 04:51:44;;;;;;;2.10;1.00;;;;;;;-2.32;81.54;97360.27;105785;1256;74240;-25
2023/03/12 04:54:12;;;;;;;1.90;1.10;;;;;;;-2.44;81.88;97377.74;105848;1254;61056;-26
2023/03/12 04:56:41;;;;;;;2.10;1.10;;;;;;;-2.20;80.74;97369.27;105854;1256;61945;-25
2023/03/12 04:59:13;;;;;;;1.50;0.80;;;;;;;-2.06;79.31;97375.30;105882;1255;75317;-25
2023/03/12 05:01:42;;;;;;;2.00;0.90;;;;;;;-2.04;78.65;97374.52;105863;1258;75658;-25
2023/03/12 05:04:20;;;;;;;1.30;0.80;;;;;;;-2.19;78.72;97400.89;105910;1257;72739;-25
2023/03/12 05:06:49;;;;;;;3.80;1.20;;;;;;;-2.38;78.69;97402.41;105895;1258;61214;-25
2023/03/12 05:09:19;;;;;;;7.70;1.20;;;;;;;-2.52;79.17;97407.27;105908;1258;61706;-25
2023/03/12 05:11:48;;;;;;;1.60;1.10;;;;;;;-2.48;78.88;97418.44;105678;1257;73412;-25
2023/03/12 05:14:20;;;;;;;3.20;1.00;;;;;;;-2.19;77.59;97411.08;105868;1256;75939;-26
2023/03/12 05:16:48;;;;;;;2.50;1.00;;;;;;;-2.25;76.84;97423.96;105912;1255;74193;-25
2023/03/12 05:19:18;;;;;;;1.80;1.10;;;;;;;-2.39;77.48;97438.48;105718;1254;61134;-26
2023/03/12 05:21:46;;;;;;;3.00;1.20;;;;;;;-2.53;77.26;97425.98;105766;1254;61190;-26
2023/03/12 05:24:15;;;;;;;2.20;1.30;;;;;;;-2.71;78.18;97446.15;105857;1257;75385;-26
2023/03/12 05:26:44;;;;;;;3.90;1.40;;;;;;;-2.82;78.43;97438.90;105668;1256;75010;-26
2023/03/12 05:29:16;;;;;;;2.10;1.20;;;;;;;-2.50;77.70;97461.17;105586;1254;74207;-26
2023/03/12 05:31:45;;;;;;;1.60;0.90;;;;;;;-2.47;76.96;97461.05;105906;1256;61182;-26
2023/03/12 05:34:15;;;;;;;1.80;1.40;;;;;;;-2.39;77.03;97489.65;105679;1256;61039;-26
2023/03/12 05:36:44;;;;;;;1.60;1.10;;;;;;;-2.66;77.29;97470.35;105892;1252;75160;-25
2023/03/12 05:39:16;;;;;;;1.90;1.20;;;;;;;-2.73;77.64;97491.95;105901;1256;75251;-25
2023/03/12 05:41:45;;;;;;;3.50;1.20;;;;;;;-2.80;77.67;97494.70;105923;1257;74096;-25
2023/03/12 05:44:17;;;;;;;2.60;1.00;;;;;;;-2.75;77.41;97492.04;105849;1256;62116;-26
2023/03/12 05:46:50;;;;;;;;;;;;;;;-2.27;76.38;97508.58;105764;1257;61899;-26
2023/03/12 05:49:23;;;;;;;0.80;0.70;;;;;;;-2.21;75.32;97501.64;105873;1257;74907;-25
2023/03/12 05:51:52;;;;;;;6.60;1.60;;;;;;;-2.34;76.02;97520.69;105934;1256;76401;-25
2023/03/12 05:54:21;;;;;;;2.80;1.20;;;;;;;-2.58;77.56;97504.45;105973;1255;73179;-25
2023/03/12 05:56:51;;;;;;;5.90;1.10;;;;;;;-2.62;78.22;97524.01;105925;1254;61216;-26
2023/03/12 05:59:21;;;;;;;4.00;1.40;;;;;;;-2.64;78.38;97517.32;105943;1252;61061;-25
2023/03/12 06:01:50;;;;;;;3.30;1.40;;;;;;;-2.26;77.43;97530.64;105964;1257;75136;-25
2023/03/12 06:04:19;;;;;;;3.10;1.20;;;;;;;-2.26;76.54;97534.20;105725;1258;75573;-25
2023/03/12 06:06:47;;;;;;;3.20;1.70;;;;;;;-2.25;76.45;97534.16;105681;1256;72957;-25
2023/03/12 06:09:16;;;;;;;2.10;1.20;;;;;;;-2.24;76.49;97549.92;105696;1254;61139;-26
2023/03/12 06:11:45;;;;;;;1.80;1.40;;;;;;;-2.24;76.36;97561.63;105864;1259;62006;-25
2023/03/12 06:14:14;;;;;;;2.60;1.90;;;;;;;-2.25;76.99;97565.92;105706;1257;75387;-25
2023/03/12 06:16:45;;;;;;;4.10;2.00;;;;;;;-2.25;77.63;97561.34;105885;1258;76004;-26
2023/03/12 06:19:14;;;;;;;3.20;2.10;;;;;;;-1.85;75.86;97561.58;105735;1253;74154;-25
2023/03/12 06:21:44;;;;;;;2.80;1.80;;;;;;;-1.78;75.17;97578.41;105824;1265;61141;-26
2023/03/12 06:24:13;;;;;;;5.00;2.30;;;;;;;-1.90;75.49;97581.29;105895;1264;61053;-25
2023/03/12 06:26:49;;;;;;;5.00;2.30;;;;;;;-1.98;76.09;97584.57;105622;1255;74346;-25
2023/03/12 06:29:17;;;;;;;4.30;2.50;;;;;;;-2.18;77.14;97591.90;105550;1258;75874;-25
2023/03/12 06:31:47;;;;;;;5.30;2.30;;;;;;;-2.39;77.27;97582.83;105717;1254;74182;-25
2023/03/12 06:34:22;;;;;;;4.80;2.60;;;;;;;-2.44;77.54;97597.69;105494;1254;62810;-26
2023/03/12 06:36:51;;;;;;;3.90;2.20;;;;;;;-2.19;76.51;97594.00;105568;1257;61451;-25
2023/03/12 06:39:19;;;;;;;3.40;1.80;;;;;;;-2.10;75.95;97612.10;105551;1254;75368;-25
2023/03/12 06:41:48;;;;;;;3.40;2.00;;;;;;;-2.08;76.04;97618.75;105878;1257;75699;-25
2023/03/12 06:44:17;;;;;;;3.00;1.90;;;;;;;-1.97;76.23;97623.46;105888;1252;73909;-25
2023/03/12 06:46:46;;;;;;;6.70;2.70;;;;;;;-1.95;75.64;97620.30;105863;1253;61118;-25
2023/03/12 06:49:15;;;;;;;6.60;2.40;;;;;;;-2.00;75.83;97621.08;105970;1264;61829;-25
2023/03/12 06:51:44;;;;;;;5.70;2.90;;;;;;;-2.00;75.48;97619.42;105862;1255;75349;-25
2023/03/12 06:54:13;;;;;;;4.50;2.30;;;;;;;-2.11;76.47;97642.93;105906;1254;75675;-25
2023/03/12 06:56:41;;;;;;;4.60;2.80;;;;;;;-2.18;76.25;97636.98;105859;1258;73245;-25
2023/03/12 06:59:10;;;;;;;3.70;2.60;;;;;;;-2.11;75.57;97633.58;105609;1258;61197;-26
2023/03/12 07:01:38;;;;;;;4.90;2.70;;;;;;;-1.64;73.77;97657.12;105771;1257;61731;-26
2023/03/12 07:04:07;;;;;;;5.30;2.90;;;;;;;-1.65;74.01;97657.52;105538;1254;74355;-26
2023/03/12 07:06:36;;;;;;;4.90;2.70;;;;;;;-1.81;74.45;97643.90;105719;1254;75561;-25
2023/03/12 07:09:04;;;;;;;3.70;2.50;;;;;;;-1.89;74.41;97623.55;105864;1252;73769;-25
2023/03/12 07:11:35;;;;;;;5.40;2.90;;;;;;;-1.77;73.96;97648.81;105551;1257;61742;-25
2023/03/12 07:14:04;;;;;;;4.60;2.80;;;;;;;-1.83;73.49;97656.42;105696;1251;61906;-25
2023/03/12 07:16:35;;;;;;;3.30;2.30;;;;;;;-1.90;73.75;97663.40;105699;1257;74284;-25
2023/03/12 07:19:05;;;;;;;4.70;2.80;;;;;;;-1.80;73.70;97667.32;105847;1255;74948;-25
2023/03/12 07:21:33;;;;;;;4.20;1.90;;;;;;;-1.77;72.38;97667.02;105713;1256;74238;-25
2023/03/12 07:24:06;;;;;;;3.20;2.20;;;;;;;-1.56;73.72;97688.32;105867;1256;61179;-25
2023/03/12 07:26:35;;;;;;;4.00;2.10;;;;;;;-1.47;73.82;97695.35;105329;1261;61812;-25
2023/03/12 07:29:04;;;;;;;2.90;2.30;;;;;;;-1.59;73.72;97688.52;105652;1254;73253;-26
2023/03/12 07:31:36;;;;;;;5.70;2.60;;;;;;;-1.66;73.16;97689.73;105715;1257;76351;-25
2023/03/12 07:34:05;;;;;;;3.40;2.00;;;;;;;-1.48;73.05;97705.83;105952;1254;73990;-25
2023/03/12 07:36:35;;;;;;;3.00;2.10;;;;;;;-1.47;73.08;97708.80;105875;1254;61245;-25
2023/03/12 07:39:04;;;;;;;4.30;3.00;;;;;;;-1.43;73.16;97706.73;105947;1257;61644;-25
2023/03/12 07:41:34;;;;;;;3.30;2.80;;;;;;;-1.56;73.73;97706.75;105740;1254;75339;-25
2023/03/12 07:44:04;;;;;;;4.90;3.00;;;;;;;-1.61;74.36;97715.88;105942;1254;75647;-25
2023/03/12 07:46:33;;;;;;;4.20;2.70;;;;;;;-1.56;74.28;97715.59;105934;1254;74079;-25
2023/03/12 07:49:01;;;;;;;5.40;3.40;;;;;;;-1.44;74.32;97736.92;105900;1255;61117;-25
2023/03/12 07:51:31;;;;;;;5.60;3.50;;;;;;;-1.61;73.91;97730.48;105737;1266;61422;-25
2023/03/12 07:53:59;;;;;;;4.10;2.70;;;;;;;-1.56;74.33;97734.65;105834;1254;75104;-25
2023/03/12 07:56:28;;;;;;;5.40;3.70;;;;;;;-1.21;73.93;97743.88;105739;1257;75923;-25
2023/03/12 07:58:57;;;;;;;7.80;3.60;;;;;;;-1.36;74.02;97748.23;105888;1254;74210;-25
2023/03/12 08:01:30;;;;;;;4.90;2.80;;;;;;;-1.07;73.43;97743.45;105862;1251;61441;-25
2023/03/12 08:04:00;;;;;;;4.10;2.60;;;;;;;-1.04;71.69;97740.23;105887;1251;62265;-25
2023/03/12 08:06:32;;;;;;;4.80;3.00;;;;;;;-1.16;71.93;97737.80;105692;1259;75264;-24
2023/03/12 08:09:01;;;;;;;5.30;3.40;;;;;;;-1.02;71.42;97737.89;105744;1257;75929;-25
2023/03/12 08:11:32;;;;;;;7.30;3.40;;;;;;;-0.91;71.09;97741.52;105704;1253;74077;-25
2023/03/12 08:14:03;;;;;;;5.20;3.20;;;;;;;-0.88;70.48;97744.61;105853;1257;61118;-25
2023/03/12 08:16:35;;;;;;;4.40;3.20;;;;;;;-0.76;69.99;97760.63;105659;1254;61612;-25
2023/03/12 08:19:04;;;;;;;4.20;2.80;;;;;;;-0.67;69.12;97761.65;105846;1255;75351;-25
2023/03/12 08:21:33;;;;;;;7.00;2.50;;;;;;;-0.73;70.14;97778.41;105880;1254;75815;-25
2023/03/12 08:24:03;;;;;;;7.10;3.20;;;;;;;-0.54;70.46;97772.09;105725;1254;73037;-26
2023/03/12 08:26:32;;;;;;;4.60;2.40;;;;;;;-0.51;70.56;97768.84;105777;1253;61065;-26
2023/03/12 08:29:00;;;;;;;3.00;2.20;;;;;;;-0.36;69.11;97757.89;105883;1257;61691;-26
2023/03/12 08:31:29;;;;;;;4.50;2.20;;;;;;;-0.36;69.08;97770.52;105881;1254;75246;-26
2023/03/12 08:33:58;;;;;;;3.00;2.30;;;;;;;-0.62;69.97;97784.58;105861;1257;75843;-26
2023/03/12 08:36:27;;;;;;;7.10;2.90;;;;;;;-0.81;69.95;97782.77;105774;1253;73908;-25
2023/03/12 08:38:55;;;;;;;4.40;2.60;;;;;;;-0.73;68.90;97791.56;105777;1253;61082;-25
2023/03/12 08:41:26;;;;;;;4.20;2.40;;;;;;;-0.52;70.32;97810.34;105591;1252;61968;-26
2023/03/12 08:43:55;;;;;;;5.00;2.50;;;;;;;-0.25;70.55;97824.85;105739;1254;75331;-27
2023/03/12 08:46:23;;;;;;;5.20;2.90;;;;;;;-0.08;70.29;97799.64;105687;1254;75829;-26
2023/03/12 08:48:52;;;;;;;6.60;3.40;;;;;;;-0.25;68.76;97807.63;105828;1254;74191;-27
2023/03/12 08:51:20;;;;;;;3.50;2.10;;;;;;;-0.41;70.89;97822.12;105929;1253;61161;-26
2023/03/12 08:53:49;;;;;;;5.40;3.40;;;;;;;-0.34;70.16;97813.41;105773;1254;61085;-27
2023/03/12 08:56:25;;;;;;;6.50;3.50;;;;;;;-0.49;69.66;97790.70;105655;1254;74400;-26
2023/03/12 08:58:54;;;;;;;3.80;2.90;;;;;;;-0.56;69.95;97793.46;105817;1253;75823;-26
2023/03/12 09:01:23;;;;;;;3.60;2.50;;;;;;;-0.80;70.24;97801.74;105828;1253;74252;-26
2023/03/12 09:03:54;;;;;;;3.50;2.30;;;;;;;-0.76;70.40;97814.71;105889;1254;61299;-26
2023/03/12 09:06:22;;;;;;;4.60;2.10;;;;;;;-0.52;71.03;97819.69;105717;1252;61154;-26
2023/03/12 09:08:56;;;;;;;6.30;2.90;;;;;;;-0.29;71.11;97820.95;105852;1251;75112;-26
2023/03/12 09:11:25;;;;;;;3.60;2.50;;;;;;;-0.06;69.96;97814.34;105670;1251;74514;-26
2023/03/12 09:13:54;;;;;;;6.00;2.90;;;;;;;0.27;68.98;97815.17;105834;1251;73100;-26
2023/03/12 09:16:42;;;;;;;6.20;2.90;;;;;;;0.37;67.89;97815.33;105858;1251;61162;-27
2023/03/12 09:19:12;;;;;;;4.80;2.80;;;;;;;0.71;66.67;97800.14;105929;1251;61049;-26
2023/03/12 09:21:42;;;;;;;2.10;1.70;;;;;;;0.80;64.94;97814.80;105894;1254;74774;-26
2023/03/12 09:24:11;;;;;;;6.50;2.80;;;;;;;1.02;64.75;97821.34;105948;1251;74874;-26
2023/03/12 09:26:39;;;;;;;4.30;2.80;;;;;;;0.91;64.76;97827.27;105922;1254;74178;-26
2023/03/12 09:29:09;;;;;;;4.10;2.70;;;;;;;0.95;64.97;97820.22;105728;1251;60995;-28
2023/03/12 09:31:38;;;;;;;4.00;2.40;;;;;;;0.84;66.24;97846.50;105749;1257;61442;-26
2023/03/12 09:34:15;;;;;;;3.00;2.20;;;;;;;0.54;67.24;97834.77;105701;1253;75378;-26
2023/03/12 09:36:44;;;;;;;6.10;2.60;;;;;;;0.35;66.96;97821.04;105754;1257;74658;-26
2023/03/12 09:39:12;;;;;;;3.30;2.70;;;;;;;0.32;67.02;97838.65;105965;1254;73986;-26
2023/03/12 09:41:44;;;;;;;3.90;2.80;;;;;;;0.14;67.99;97844.84;105866;1254;61135;-27
2023/03/12 09:44:42;;;;;;;4.10;2.90;;;;;;;0.24;68.91;97862.02;105697;1253;61040;-27
2023/03/12 09:47:28;;;;;;;4.70;2.60;;;;;;;0.15;70.39;97866.11;105680;1252;74663;-27
2023/03/12 09:50:32;;;;;;;3.80;2.50;;;;;;;0.18;70.76;97871.04;105621;1255;75788;-27
2023/03/12 09:53:10;;;;;;;4.00;2.70;;;;;;;0.28;71.49;97874.86;105678;1254;72227;-26
2023/03/12 09:55:41;;;;;;;2.50;2.00;;;;;;;0.49;68.88;97851.84;105707;1254;62762;-26
2023/03/12 09:58:13;;;;;;;3.70;2.20;;;;;;;1.00;68.49;97863.30;105655;1259;61780;-26
2023/03/12 10:00:43;;;;;;;4.90;2.70;;;;;;;1.26;67.93;97864.95;105618;1253;75148;-26
2023/03/12 10:03:33;;;;;;;4.20;3.00;;;;;;;1.16;68.03;97870.00;105809;1256;75814;-26
2023/03/12 10:06:19;;;;;;;3.20;1.90;;;;;;;0.72;67.63;97857.45;105620;1254;74085;-26
2023/03/12 10:08:48;;;;;;;4.70;3.00;;;;;;;0.71;69.50;97863.70;105409;1253;61228;-27
2023/03/12 10:11:31;;;;;;;4.30;2.80;;;;;;;0.53;69.04;97861.17;105626;1254;61787;-26
2023/03/12 10:14:33;;;;;;;4.30;2.60;;;;;;;0.41;70.60;97859.43;105657;1253;75339;-26
2023/03/12 10:17:13;;;;;;;7.70;3.80;;;;;;;0.61;69.72;97861.16;105739;1257;75812;-26
2023/03/12 10:20:10;;;;;;;4.70;2.80;;;;;;;0.62;70.00;97864.73;105701;1259;74005;-26
2023/03/12 10:22:54;;;;;;;3.10;2.20;;;;;;;0.70;70.13;97867.80;104396;1253;2007640;-26
2023/03/12 10:25:26;;;;;;;;;;;;;;;0.81;69.40;97867.88;105725;1258;62125;-27
2023/03/12 10:27:59;;;;;;;4.40;2.30;;;;;;;0.80;69.39;97869.30;105700;1257;74189;-26
2023/03/12 10:30:28;;;;;;;4.10;2.70;;;;;;;0.80;68.60;97871.83;105715;1259;75888;-26
2023/03/12 10:32:59;;;;;;;2.40;2.10;;;;;;;0.91;69.27;97872.74;105568;1257;73874;-26
2023/03/12 10:35:29;;;;;;;7.20;3.10;;;;;;;1.23;68.92;97874.58;105645;1253;61142;-26
2023/03/12 10:37:59;;;;;;;4.10;2.20;;;;;;;1.24;69.19;97873.81;105639;1253;61765;-27
2023/03/12 10:40:33;;;;;;;4.50;3.00;;;;;;;1.13;69.56;97870.08;105708;1253;74768;-26
2023/03/12 10:43:05;;;;;;;4.90;3.20;;;;;;;0.92;69.02;97873.17;105679;1259;75903;-26
2023/03/12 10:45:38;;;;;;;;;;;;;;;0.83;70.97;97874.23;105597;1254;73921;-26
2023/03/12 10:48:10;;;;;;;4.60;3.50;;;;;;;0.69;69.81;97867.39;105487;1257;61216;-26
2023/03/12 10:50:41;;;;;;;6.50;2.80;;;;;;;0.72;69.96;97872.15;105459;1253;61580;-26
2023/03/12 10:53:21;;;;;;;4.40;2.90;;;;;;;0.68;70.21;97869.80;105524;1253;75573;-27
2023/03/12 10:56:05;;;;;;;5.80;3.60;;;;;;;1.01;68.81;97864.98;105565;1254;75694;-26
2023/03/12 10:58:48;;;;;;;3.40;2.50;;;;;;;1.22;67.60;97856.19;105750;1253;73919;-26
2023/03/12 11:01:24;;;;;;;4.90;2.90;;;;;;;1.41;67.88;97857.55;105642;1254;61197;-26
2023/03/12 11:04:14;;;;;;;3.90;2.70;;;;;;;1.39;67.90;97869.46;105697;1253;61181;-26
2023/03/12 11:07:02;;;;;;;4.90;3.00;;;;;;;1.37;67.98;97861.23;105698;1259;75181;-26
2023/03/12 11:09:31;;;;;;;4.00;2.80;;;;;;;1.23;68.37;97859.88;105931;1256;74970;-26
2023/03/12 11:11:59;;;;;;;4.60;3.10;;;;;;;1.03;68.54;97844.34;105909;1256;73034;-25
2023/03/12 11:14:31;;;;;;;4.70;2.50;;;;;;;0.92;69.73;97863.98;105829;1253;61161;-26
2023/03/12 11:17:00;;;;;;;4.20;2.80;;;;;;;0.79;70.01;97854.02;105715;1258;61062;-26
2023/03/12 11:19:33;;;;;;;3.80;2.60;;;;;;;0.63;70.43;97861.27;105599;1251;75124;-26
2023/03/12 11:22:07;;;;;;;7.60;3.00;;;;;;;0.57;71.72;97870.98;105718;1254;75835;-26
2023/03/12 11:25:00;;;;;;;2.70;2.20;;;;;;;0.74;72.17;97868.65;105521;1254;74217;-26
2023/03/12 11:27:37;;;;;;;3.30;2.20;;;;;;;1.04;71.35;97874.03;105538;1257;61062;-26
2023/03/12 11:30:07;;;;;;;4.60;3.30;;;;;;;1.05;71.00;97873.59;105407;1255;62661;-26
2023/03/12 11:32:41;;;;;;;5.70;3.50;;;;;;;0.91;71.64;97875.11;105461;1251;75370;-26
2023/03/12 11:35:11;;;;;;;4.40;2.60;;;;;;;0.77;72.89;97891.83;105476;1261;75648;-26
2023/03/12 11:38:00;;;;;;;4.70;2.90;;;;;;;0.83;72.81;97882.59;105579;1253;72895;-26
2023/03/12 11:40:53;;;;;;;4.20;3.10;;;;;;;0.80;71.42;97879.38;105535;1254;61415;-27
2023/03/12 11:43:37;;;;;;;3.80;3.00;;;;;;;0.71;70.76;97839.94;105583;1254;61925;-26
2023/03/12 11:46:56;;;;;;;3.70;2.90;;;;;;;0.66;70.88;97859.53;105560;1254;75377;-26
2023/03/12 11:49:43;;;;;;;4.90;3.40;;;;;;;1.01;70.63;97875.73;105642;1253;75819;-26